< < Back
Terminal Aerodrome Forecast


Current Version              Previous Versions:   1  2  3  4  5  6  7  8  9  

Terminal Aerodrome Forecast

336
FTUS42 KTAE 281720
TAFABY
TAF
KABY 281720Z 2818/2918 VRB03KT P6SM SCT050=

Latest METAR

604
SAUS70 KWBC 291600 RRB
MTRABY
METAR KABY 291553Z 31006KT 10SM CLR 34/23 A3001 RMK AO2 SLP159
T03440233


USA.gov is the U.S. government's official web portal to all federal, state and local government web resources and services.